createdAt,value
2022-11-18T00:04:20.440Z,995.1
2022-11-18T00:09:20.503Z,995.1
2022-11-18T00:14:20.235Z,995.2
2022-11-18T00:19:20.472Z,995.3
2022-11-18T00:24:20.796Z,995.4
2022-11-18T00:29:20.724Z,995.4
2022-11-18T00:34:20.541Z,995.4
2022-11-18T00:39:21.051Z,995.6
2022-11-18T00:44:20.093Z,995.6
2022-11-18T00:49:20.429Z,995.6
2022-11-18T00:54:20.511Z,995.7
2022-11-18T00:59:20.519Z,995.7
2022-11-18T01:04:20.289Z,995.8
2022-11-18T01:09:20.360Z,995.8
2022-11-18T01:14:22.515Z,995.9
2022-11-18T01:19:20.479Z,996
2022-11-18T01:24:20.349Z,996.1
2022-11-18T01:29:20.345Z,996.1
2022-11-18T01:34:20.374Z,996.2
2022-11-18T01:39:20.118Z,996.2
2022-11-18T01:45:02.355Z,996.3
2022-11-18T01:49:20.522Z,996.3
2022-11-18T01:54:23.293Z,996.3
2022-11-18T01:59:22.440Z,996.3
2022-11-18T02:04:19.992Z,996.4
2022-11-18T02:09:20.203Z,996.3
2022-11-18T02:14:21.269Z,996.5
2022-11-18T02:19:31.764Z,996.5
2022-11-18T02:24:26.055Z,996.6
2022-11-18T02:30:11.873Z,996.6
2022-11-18T02:34:20.110Z,996.6
2022-11-18T02:39:22.127Z,996.7
2022-11-18T02:44:21.299Z,996.7
2022-11-18T02:50:14.355Z,996.8
2022-11-18T02:54:21.657Z,996.8
2022-11-18T02:59:20.247Z,996.8
2022-11-18T03:04:19.996Z,996.8
2022-11-18T03:09:23.860Z,996.9
2022-11-18T03:14:23.627Z,997
2022-11-18T03:19:23.432Z,997.1
2022-11-18T03:24:21.824Z,997.1
2022-11-18T03:29:24.749Z,997.2
2022-11-18T03:34:20.069Z,997.3
2022-11-18T03:39:20.093Z,997.3
2022-11-18T03:44:19.790Z,997.4
2022-11-18T03:49:23.589Z,997.4
2022-11-18T03:54:22.378Z,997.4
2022-11-18T03:59:20.383Z,997.5
2022-11-18T04:04:21.517Z,997.5
2022-11-18T04:09:20.398Z,997.5
2022-11-18T04:14:20.667Z,997.6
2022-11-18T04:19:20.668Z,997.7
2022-11-18T04:24:20.178Z,997.7
2022-11-18T04:29:20.063Z,997.8
2022-11-18T04:34:20.035Z,997.9
2022-11-18T04:39:20.419Z,998
2022-11-18T04:44:20.119Z,998
2022-11-18T04:49:20.478Z,998.1
2022-11-18T04:54:20.401Z,998.2
2022-11-18T04:59:20.953Z,998.3
2022-11-18T05:04:21.887Z,998.3
2022-11-18T05:09:20.310Z,998.2
2022-11-18T05:14:19.775Z,998.3
2022-11-18T05:19:20.651Z,998.3
2022-11-18T05:24:20.003Z,998.4
2022-11-18T05:29:20.095Z,998.5
2022-11-18T05:34:19.768Z,998.5
2022-11-18T05:42:11.325Z,998.6
2022-11-18T05:44:19.531Z,998.6
2022-11-18T05:49:20.328Z,998.7
2022-11-18T05:54:20.587Z,998.8
2022-11-18T05:59:20.027Z,998.9
2022-11-18T06:04:19.909Z,998.9
2022-11-18T06:09:21.656Z,999
2022-11-18T06:14:21.596Z,999
2022-11-18T06:19:20.548Z,999.1
2022-11-18T06:24:19.859Z,999.2
2022-11-18T06:29:24.512Z,999.1
2022-11-18T06:34:19.577Z,999.2
2022-11-18T06:39:19.982Z,999.4
2022-11-18T06:44:19.853Z,999.4
2022-11-18T06:49:20.513Z,999.6
2022-11-18T06:54:19.760Z,999.6
2022-11-18T06:59:19.839Z,999.7
2022-11-18T07:04:19.658Z,999.7
2022-11-18T07:09:20.268Z,999.8
2022-11-18T07:14:19.754Z,999.9
2022-11-18T07:19:20.158Z,1000
2022-11-18T07:24:19.660Z,1000.1
2022-11-18T07:29:19.878Z,1000.1
2022-11-18T07:34:19.709Z,1000.2
2022-11-18T07:39:20.247Z,1000.3
2022-11-18T07:44:19.761Z,1000.3
2022-11-18T07:49:20.208Z,1000.4
2022-11-18T07:54:19.606Z,1000.4
2022-11-18T07:59:20.690Z,1000.5
2022-11-18T08:04:19.898Z,1000.6
2022-11-18T08:09:20.000Z,1000.7
2022-11-18T08:14:19.628Z,1000.7
2022-11-18T08:19:20.497Z,1000.8
2022-11-18T08:24:19.435Z,1000.9
2022-11-18T08:29:24.680Z,1000.9
2022-11-18T08:34:19.607Z,1001
2022-11-18T09:49:44.572Z,1001.8
2022-11-18T09:54:34.681Z,1001.8
2022-11-18T09:59:33.976Z,1001.9
2022-11-18T10:04:33.904Z,1002
2022-11-18T10:10:00.547Z,1002
2022-11-18T10:15:08.569Z,1002.1
2022-11-18T10:20:00.513Z,1002.1
2022-11-18T10:25:00.462Z,1002.2
2022-11-18T10:30:00.946Z,1002.2
2022-11-18T10:35:00.471Z,1002.3
2022-11-18T10:40:00.444Z,1002.3
2022-11-18T10:45:00.439Z,1002.3
2022-11-18T10:50:00.460Z,1002.4
2022-11-18T10:55:00.438Z,1002.4
2022-11-18T11:00:00.585Z,1002.4
2022-11-18T11:05:00.460Z,1002.5
2022-11-18T11:10:00.482Z,1002.5
2022-11-18T11:15:02.302Z,1002.5
2022-11-18T11:20:00.376Z,1002.6
2022-11-18T11:25:00.612Z,1002.6
2022-11-18T11:30:00.366Z,1002.6
2022-11-18T11:35:00.340Z,1002.5
2022-11-18T11:40:00.341Z,1002.6
2022-11-18T11:45:00.474Z,1002.6
2022-11-18T11:50:00.454Z,1002.6
2022-11-18T11:55:00.420Z,1002.6
2022-11-18T12:00:00.438Z,1002.7
2022-11-18T12:05:00.174Z,1002.7
2022-11-18T12:10:06.852Z,1002.7
2022-11-18T12:15:05.405Z,1002.7
2022-11-18T12:20:00.599Z,1002.7
2022-11-18T12:25:38.317Z,1002.8
2022-11-18T12:30:00.452Z,1002.9
2022-11-18T12:35:00.411Z,1002.9
2022-11-18T12:40:00.096Z,1002.9
2022-11-18T12:45:00.457Z,1003
2022-11-18T12:50:00.416Z,1003
2022-11-18T12:55:00.125Z,1003
2022-11-18T13:00:00.268Z,1003
2022-11-18T13:05:00.361Z,1003.1
2022-11-18T13:10:00.442Z,1003.1
2022-11-18T13:15:00.116Z,1003.2
2022-11-18T13:20:00.345Z,1003.2
2022-11-18T13:25:00.443Z,1003.2
2022-11-18T13:30:00.027Z,1003.3
2022-11-18T13:35:00.046Z,1003.3
2022-11-18T13:40:00.360Z,1003.3
2022-11-18T13:44:59.979Z,1003.3
2022-11-18T13:50:04.615Z,1003.3
2022-11-18T13:55:00.383Z,1003.4
2022-11-18T14:00:00.134Z,1003.4
2022-11-18T14:05:00.458Z,1003.5
2022-11-18T14:10:01.384Z,1003.5
2022-11-18T14:15:00.147Z,1003.6
2022-11-18T14:20:00.493Z,1003.6
2022-11-18T14:25:00.337Z,1003.7
2022-11-18T14:30:00.053Z,1003.7
2022-11-18T14:35:00.218Z,1003.7
2022-11-18T14:40:00.385Z,1003.8
2022-11-18T14:44:59.963Z,1003.9
2022-11-18T14:50:00.037Z,1003.9
2022-11-18T14:55:00.143Z,1003.9
2022-11-18T14:59:59.943Z,1004
2022-11-18T15:05:00.463Z,1004.1
2022-11-18T15:09:59.967Z,1004.1
2022-11-18T15:15:00.279Z,1004.2
2022-11-18T15:20:00.347Z,1004.2
2022-11-18T15:24:59.946Z,1004.3
2022-11-18T15:30:01.777Z,1004.3
2022-11-18T15:35:00.135Z,1004.3
2022-11-18T15:40:00.338Z,1004.3
2022-11-18T15:45:00.088Z,1004.4
2022-11-18T15:50:00.048Z,1004.4
2022-11-18T15:55:02.929Z,1004.5
2022-11-18T15:59:59.884Z,1004.5
2022-11-18T16:05:00.382Z,1004.6
2022-11-18T16:09:59.877Z,1004.6
2022-11-18T16:14:59.870Z,1004.6
2022-11-18T16:20:00.037Z,1004.6
2022-11-18T16:25:00.005Z,1004.6
2022-11-18T16:30:00.013Z,1004.6
2022-11-18T16:35:01.387Z,1004.7
2022-11-18T16:40:00.127Z,1004.8
2022-11-18T16:45:00.077Z,1004.8
2022-11-18T16:50:00.191Z,1004.9
2022-11-18T16:55:00.212Z,1004.9
2022-11-18T17:00:00.226Z,1004.9
2022-11-18T17:05:00.136Z,1005
2022-11-18T17:10:00.008Z,1005.1
2022-11-18T17:15:00.036Z,1005.1
2022-11-18T17:19:59.893Z,1005.2
2022-11-18T17:25:05.121Z,1005.2
2022-11-18T17:29:59.989Z,1005.3
2022-11-18T17:34:59.807Z,1005.3
2022-11-18T17:39:59.813Z,1005.4
2022-11-18T17:45:00.019Z,1005.4
2022-11-18T17:50:00.042Z,1005.4
2022-11-18T17:54:59.838Z,1005.4
2022-11-18T18:00:00.032Z,1005.5
2022-11-18T18:05:00.125Z,1005.6
2022-11-18T18:10:00.003Z,1005.7
2022-11-18T18:14:59.793Z,1005.7
2022-11-18T18:19:59.781Z,1005.8
2022-11-18T18:25:00.069Z,1005.8
2022-11-18T18:29:59.996Z,1005.8
2022-11-18T18:35:00.097Z,1005.8
2022-11-18T18:40:00.113Z,1005.9
2022-11-18T18:45:00.023Z,1005.9
2022-11-18T18:50:00.047Z,1005.9
2022-11-18T18:54:59.824Z,1006
2022-11-18T19:00:00.019Z,1006.1
2022-11-18T19:04:59.807Z,1006.1
2022-11-18T19:09:59.706Z,1006.2
2022-11-18T19:14:59.757Z,1006.2
2022-11-18T19:19:59.898Z,1006.2
2022-11-18T19:25:00.433Z,1006.3
2022-11-18T19:29:59.799Z,1006.3
2022-11-18T19:35:00.099Z,1006.3
2022-11-18T19:39:59.747Z,1006.4
2022-11-18T19:44:59.758Z,1006.4
2022-11-18T19:49:59.893Z,1006.5
2022-11-18T19:54:59.776Z,1006.6
2022-11-18T19:59:59.939Z,1006.6
2022-11-18T20:04:59.684Z,1006.7
2022-11-18T20:09:59.821Z,1006.7
2022-11-18T20:14:59.762Z,1006.8
2022-11-18T20:19:59.912Z,1006.9
2022-11-18T20:24:59.683Z,1006.9
2022-11-18T20:29:59.906Z,1007
2022-11-18T20:34:59.949Z,1007.1
2022-11-18T20:39:59.849Z,1007.2
2022-11-18T20:44:59.695Z,1007.3
2022-11-18T20:49:59.910Z,1007.3
2022-11-18T20:55:05.244Z,1007.4
2022-11-18T20:59:59.682Z,1007.4
2022-11-18T21:04:59.695Z,1007.4
2022-11-18T21:09:59.839Z,1007.5
2022-11-18T21:15:00.113Z,1007.5
2022-11-18T21:19:59.889Z,1007.6
2022-11-18T21:24:59.984Z,1007.7
2022-11-18T21:29:59.767Z,1007.8
2022-11-18T21:34:59.695Z,1007.8
2022-11-18T21:39:59.851Z,1007.8
2022-11-18T21:44:59.711Z,1008
2022-11-18T21:49:59.566Z,1007.9
2022-11-18T21:55:00.393Z,1007.9
2022-11-18T21:59:59.634Z,1008
2022-11-18T22:04:59.621Z,1008
2022-11-18T22:09:59.587Z,1008.2
2022-11-18T22:14:59.628Z,1008.2
2022-11-18T22:19:59.871Z,1008.3
2022-11-18T22:24:59.647Z,1008.3
2022-11-18T22:29:59.848Z,1008.3
2022-11-18T22:34:59.913Z,1008.4
2022-11-18T22:39:59.808Z,1008.5
2022-11-18T22:44:59.615Z,1008.5
2022-11-18T22:49:59.595Z,1008.6
2022-11-18T22:54:59.569Z,1008.7
2022-11-18T22:59:59.706Z,1008.7
2022-11-18T23:04:59.571Z,1008.7
2022-11-18T23:09:59.701Z,1008.8
2022-11-18T23:14:59.699Z,1008.9
2022-11-18T23:19:59.866Z,1008.9
2022-11-18T23:24:59.702Z,1008.9
2022-11-18T23:29:59.493Z,1009
2022-11-18T23:34:59.483Z,1009
2022-11-18T23:39:59.683Z,1009.1
2022-11-18T23:45:04.877Z,1009.1
2022-11-18T23:49:59.757Z,1009.1
2022-11-18T23:54:59.763Z,1009.2
2022-11-18T23:59:59.473Z,1009.2
